sensor_id;sensor_type;location;lat;lon;timestamp;P1;durP1;ratioP1;P2;durP2;ratioP2
22754;SDS011;11544;42.020;23.094;2022-10-17T00:01:13;3.85;;;2.80;;
22754;SDS011;11544;42.020;23.094;2022-10-17T00:03:39;2.63;;;1.95;;
22754;SDS011;11544;42.020;23.094;2022-10-17T00:06:12;4.30;;;3.20;;
22754;SDS011;11544;42.020;23.094;2022-10-17T00:08:39;3.50;;;2.53;;
22754;SDS011;11544;42.020;23.094;2022-10-17T00:11:18;6.40;;;2.30;;
22754;SDS011;11544;42.020;23.094;2022-10-17T00:13:46;4.28;;;2.60;;
22754;SDS011;11544;42.020;23.094;2022-10-17T00:16:13;2.58;;;2.20;;
22754;SDS011;11544;42.020;23.094;2022-10-17T00:18:40;2.78;;;2.50;;
22754;SDS011;11544;42.020;23.094;2022-10-17T00:21:10;3.65;;;2.60;;
22754;SDS011;11544;42.020;23.094;2022-10-17T00:23:39;3.70;;;1.95;;
22754;SDS011;11544;42.020;23.094;2022-10-17T00:26:05;3.80;;;2.55;;
22754;SDS011;11544;42.020;23.094;2022-10-17T00:28:31;4.32;;;2.50;;
22754;SDS011;11544;42.020;23.094;2022-10-17T00:30:58;2.85;;;2.40;;
22754;SDS011;11544;42.020;23.094;2022-10-17T00:33:25;3.50;;;2.25;;
22754;SDS011;11544;42.020;23.094;2022-10-17T00:36:00;3.47;;;2.35;;
22754;SDS011;11544;42.020;23.094;2022-10-17T00:38:31;3.53;;;2.40;;
22754;SDS011;11544;42.020;23.094;2022-10-17T00:40:56;2.88;;;2.30;;
22754;SDS011;11544;42.020;23.094;2022-10-17T00:43:22;5.15;;;2.97;;
22754;SDS011;11544;42.020;23.094;2022-10-17T00:45:48;5.70;;;2.70;;
22754;SDS011;11544;42.020;23.094;2022-10-17T00:48:14;4.40;;;2.47;;
22754;SDS011;11544;42.020;23.094;2022-10-17T00:50:41;5.40;;;2.65;;
22754;SDS011;11544;42.020;23.094;2022-10-17T00:53:10;4.00;;;2.65;;
22754;SDS011;11544;42.020;23.094;2022-10-17T00:55:49;4.40;;;2.58;;
22754;SDS011;11544;42.020;23.094;2022-10-17T00:58:18;3.35;;;2.75;;
22754;SDS011;11544;42.020;23.094;2022-10-17T01:00:45;3.40;;;2.35;;
22754;SDS011;11544;42.020;23.094;2022-10-17T01:03:13;3.95;;;2.55;;
22754;SDS011;11544;42.020;23.094;2022-10-17T01:05:40;4.38;;;2.80;;
22754;SDS011;11544;42.020;23.094;2022-10-17T01:08:06;6.05;;;2.63;;
22754;SDS011;11544;42.020;23.094;2022-10-17T01:10:34;3.63;;;2.75;;
22754;SDS011;11544;42.020;23.094;2022-10-17T01:13:13;4.65;;;2.80;;
22754;SDS011;11544;42.020;23.094;2022-10-17T01:24:28;6.15;;;2.92;;
22754;SDS011;11544;42.020;23.094;2022-10-17T01:30:00;3.28;;;2.17;;
22754;SDS011;11544;42.020;23.094;2022-10-17T01:33:15;5.57;;;2.60;;
22754;SDS011;11544;42.020;23.094;2022-10-17T01:39:29;4.25;;;2.85;;
22754;SDS011;11544;42.020;23.094;2022-10-17T01:41:57;3.67;;;2.40;;
22754;SDS011;11544;42.020;23.094;2022-10-17T01:47:07;3.75;;;2.78;;
22754;SDS011;11544;42.020;23.094;2022-10-17T01:49:40;3.15;;;2.42;;
22754;SDS011;11544;42.020;23.094;2022-10-17T01:52:21;4.50;;;2.70;;
22754;SDS011;11544;42.020;23.094;2022-10-17T01:54:56;5.57;;;2.50;;
22754;SDS011;11544;42.020;23.094;2022-10-17T01:59:59;5.53;;;2.85;;
22754;SDS011;11544;42.020;23.094;2022-10-17T02:02:38;3.92;;;2.58;;
22754;SDS011;11544;42.020;23.094;2022-10-17T02:05:05;3.67;;;2.53;;
22754;SDS011;11544;42.020;23.094;2022-10-17T02:07:32;4.70;;;2.83;;
22754;SDS011;11544;42.020;23.094;2022-10-17T02:09:58;5.15;;;2.78;;
22754;SDS011;11544;42.020;23.094;2022-10-17T02:26:09;4.50;;;3.08;;
22754;SDS011;11544;42.020;23.094;2022-10-17T02:34:31;7.50;;;4.05;;
22754;SDS011;11544;42.020;23.094;2022-10-17T02:37:04;5.82;;;3.40;;
22754;SDS011;11544;42.020;23.094;2022-10-17T02:39:32;6.88;;;4.25;;
22754;SDS011;11544;42.020;23.094;2022-10-17T02:42:01;7.22;;;3.83;;
22754;SDS011;11544;42.020;23.094;2022-10-17T02:44:30;4.88;;;3.85;;
22754;SDS011;11544;42.020;23.094;2022-10-17T02:47:07;5.90;;;3.83;;
22754;SDS011;11544;42.020;23.094;2022-10-17T02:49:42;5.70;;;3.45;;
22754;SDS011;11544;42.020;23.094;2022-10-17T02:52:55;7.82;;;3.30;;
22754;SDS011;11544;42.020;23.094;2022-10-17T02:55:08;7.05;;;4.10;;
22754;SDS011;11544;42.020;23.094;2022-10-17T02:57:41;6.75;;;3.50;;
22754;SDS011;11544;42.020;23.094;2022-10-17T03:00:20;7.20;;;2.70;;
22754;SDS011;11544;42.020;23.094;2022-10-17T03:02:49;3.88;;;2.42;;
22754;SDS011;11544;42.020;23.094;2022-10-17T03:05:20;6.47;;;3.15;;
22754;SDS011;11544;42.020;23.094;2022-10-17T03:07:48;5.00;;;3.10;;
22754;SDS011;11544;42.020;23.094;2022-10-17T03:10:14;5.78;;;3.38;;
22754;SDS011;11544;42.020;23.094;2022-10-17T03:12:40;4.45;;;2.55;;
22754;SDS011;11544;42.020;23.094;2022-10-17T03:15:07;4.80;;;2.90;;
22754;SDS011;11544;42.020;23.094;2022-10-17T03:17:34;6.15;;;3.22;;
22754;SDS011;11544;42.020;23.094;2022-10-17T03:20:00;3.92;;;3.08;;
22754;SDS011;11544;42.020;23.094;2022-10-17T03:22:28;5.65;;;2.75;;
22754;SDS011;11544;42.020;23.094;2022-10-17T03:24:55;4.43;;;3.05;;
22754;SDS011;11544;42.020;23.094;2022-10-17T03:27:21;9.43;;;3.20;;
22754;SDS011;11544;42.020;23.094;2022-10-17T03:29:47;5.38;;;3.25;;
22754;SDS011;11544;42.020;23.094;2022-10-17T03:32:14;7.05;;;3.78;;
22754;SDS011;11544;42.020;23.094;2022-10-17T03:34:40;4.45;;;2.97;;
22754;SDS011;11544;42.020;23.094;2022-10-17T03:37:06;7.80;;;3.75;;
22754;SDS011;11544;42.020;23.094;2022-10-17T03:39:34;6.68;;;3.28;;
22754;SDS011;11544;42.020;23.094;2022-10-17T03:41:59;9.43;;;3.92;;
22754;SDS011;11544;42.020;23.094;2022-10-17T03:44:25;6.03;;;3.88;;
22754;SDS011;11544;42.020;23.094;2022-10-17T03:46:51;7.55;;;3.50;;
22754;SDS011;11544;42.020;23.094;2022-10-17T03:49:16;6.40;;;3.70;;
22754;SDS011;11544;42.020;23.094;2022-10-17T03:51:42;10.30;;;5.55;;
22754;SDS011;11544;42.020;23.094;2022-10-17T03:54:12;8.88;;;5.07;;
22754;SDS011;11544;42.020;23.094;2022-10-17T03:56:38;8.50;;;5.00;;
22754;SDS011;11544;42.020;23.094;2022-10-17T03:59:12;7.30;;;4.93;;
22754;SDS011;11544;42.020;23.094;2022-10-17T04:01:40;9.95;;;5.55;;
22754;SDS011;11544;42.020;23.094;2022-10-17T04:04:07;8.70;;;5.15;;
22754;SDS011;11544;42.020;23.094;2022-10-17T04:06:34;7.28;;;4.68;;
22754;SDS011;11544;42.020;23.094;2022-10-17T04:09:01;8.48;;;5.20;;
22754;SDS011;11544;42.020;23.094;2022-10-17T04:11:39;7.50;;;4.68;;
22754;SDS011;11544;42.020;23.094;2022-10-17T04:14:06;10.70;;;5.50;;
22754;SDS011;11544;42.020;23.094;2022-10-17T04:16:32;7.72;;;4.50;;
22754;SDS011;11544;42.020;23.094;2022-10-17T04:19:01;9.32;;;4.35;;
22754;SDS011;11544;42.020;23.094;2022-10-17T04:21:33;6.75;;;3.95;;
22754;SDS011;11544;42.020;23.094;2022-10-17T04:24:04;10.27;;;4.55;;
22754;SDS011;11544;42.020;23.094;2022-10-17T04:26:48;6.85;;;4.15;;
22754;SDS011;11544;42.020;23.094;2022-10-17T04:29:16;6.18;;;3.80;;
22754;SDS011;11544;42.020;23.094;2022-10-17T04:31:44;7.22;;;4.13;;
22754;SDS011;11544;42.020;23.094;2022-10-17T04:34:20;7.32;;;4.10;;
22754;SDS011;11544;42.020;23.094;2022-10-17T04:36:46;6.53;;;3.70;;
22754;SDS011;11544;42.020;23.094;2022-10-17T04:39:12;7.30;;;3.50;;
22754;SDS011;11544;42.020;23.094;2022-10-17T04:41:39;10.85;;;5.35;;
22754;SDS011;11544;42.020;23.094;2022-10-17T04:44:04;7.53;;;4.40;;
22754;SDS011;11544;42.020;23.094;2022-10-17T04:46:35;7.72;;;3.97;;
22754;SDS011;11544;42.020;23.094;2022-10-17T04:49:01;9.20;;;4.28;;
22754;SDS011;11544;42.020;23.094;2022-10-17T04:51:27;6.68;;;3.92;;
22754;SDS011;11544;42.020;23.094;2022-10-17T04:54:14;6.38;;;3.63;;
22754;SDS011;11544;42.020;23.094;2022-10-17T04:56:43;7.97;;;3.42;;
22754;SDS011;11544;42.020;23.094;2022-10-17T04:59:09;4.38;;;3.10;;
22754;SDS011;11544;42.020;23.094;2022-10-17T05:01:38;5.50;;;3.67;;
22754;SDS011;11544;42.020;23.094;2022-10-17T05:04:05;5.57;;;3.90;;
22754;SDS011;11544;42.020;23.094;2022-10-17T05:06:31;5.25;;;3.13;;
22754;SDS011;11544;42.020;23.094;2022-10-17T05:09:24;4.03;;;2.78;;
22754;SDS011;11544;42.020;23.094;2022-10-17T05:11:50;7.13;;;3.35;;
22754;SDS011;11544;42.020;23.094;2022-10-17T05:14:17;5.47;;;3.60;;
22754;SDS011;11544;42.020;23.094;2022-10-17T05:16:43;7.05;;;3.50;;
22754;SDS011;11544;42.020;23.094;2022-10-17T05:19:09;4.80;;;3.50;;
22754;SDS011;11544;42.020;23.094;2022-10-17T05:21:41;7.20;;;2.95;;
22754;SDS011;11544;42.020;23.094;2022-10-17T05:24:07;7.60;;;3.72;;
22754;SDS011;11544;42.020;23.094;2022-10-17T05:26:37;10.25;;;4.43;;
22754;SDS011;11544;42.020;23.094;2022-10-17T05:29:03;12.35;;;4.90;;
22754;SDS011;11544;42.020;23.094;2022-10-17T05:31:33;5.47;;;3.85;;
22754;SDS011;11544;42.020;23.094;2022-10-17T05:33:59;7.90;;;3.63;;
22754;SDS011;11544;42.020;23.094;2022-10-17T05:36:26;8.50;;;3.80;;
22754;SDS011;11544;42.020;23.094;2022-10-17T05:38:52;8.38;;;4.40;;
22754;SDS011;11544;42.020;23.094;2022-10-17T05:41:18;5.63;;;3.15;;
22754;SDS011;11544;42.020;23.094;2022-10-17T05:43:45;7.57;;;3.67;;
22754;SDS011;11544;42.020;23.094;2022-10-17T05:46:16;7.60;;;3.72;;
22754;SDS011;11544;42.020;23.094;2022-10-17T05:48:42;11.48;;;5.80;;
22754;SDS011;11544;42.020;23.094;2022-10-17T05:51:08;17.17;;;7.78;;
22754;SDS011;11544;42.020;23.094;2022-10-17T05:53:36;10.48;;;6.22;;
22754;SDS011;11544;42.020;23.094;2022-10-17T05:56:10;9.35;;;5.78;;
22754;SDS011;11544;42.020;23.094;2022-10-17T05:58:41;14.32;;;5.88;;
22754;SDS011;11544;42.020;23.094;2022-10-17T06:01:19;7.75;;;5.10;;
22754;SDS011;11544;42.020;23.094;2022-10-17T06:03:44;7.90;;;5.82;;
22754;SDS011;11544;42.020;23.094;2022-10-17T06:06:11;8.52;;;5.75;;
22754;SDS011;11544;42.020;23.094;2022-10-17T06:08:41;10.98;;;5.45;;
22754;SDS011;11544;42.020;23.094;2022-10-17T06:11:12;8.27;;;5.95;;
22754;SDS011;11544;42.020;23.094;2022-10-17T06:13:38;12.25;;;6.80;;
22754;SDS011;11544;42.020;23.094;2022-10-17T06:16:10;13.30;;;7.28;;
22754;SDS011;11544;42.020;23.094;2022-10-17T06:18:36;9.90;;;6.30;;
22754;SDS011;11544;42.020;23.094;2022-10-17T06:21:03;12.82;;;6.93;;
22754;SDS011;11544;42.020;23.094;2022-10-17T06:23:32;12.35;;;6.10;;
22754;SDS011;11544;42.020;23.094;2022-10-17T06:26:08;8.88;;;5.43;;
22754;SDS011;11544;42.020;23.094;2022-10-17T06:28:34;11.15;;;5.55;;
22754;SDS011;11544;42.020;23.094;2022-10-17T06:31:08;12.27;;;6.03;;
22754;SDS011;11544;42.020;23.094;2022-10-17T06:33:36;8.52;;;5.40;;
22754;SDS011;11544;42.020;23.094;2022-10-17T06:36:02;11.10;;;6.30;;
22754;SDS011;11544;42.020;23.094;2022-10-17T06:38:30;8.88;;;5.68;;
22754;SDS011;11544;42.020;23.094;2022-10-17T06:41:08;8.80;;;6.32;;
22754;SDS011;11544;42.020;23.094;2022-10-17T06:43:38;13.35;;;6.93;;
22754;SDS011;11544;42.020;23.094;2022-10-17T06:46:22;11.18;;;6.93;;
22754;SDS011;11544;42.020;23.094;2022-10-17T06:49:05;11.85;;;7.00;;
22754;SDS011;11544;42.020;23.094;2022-10-17T06:51:41;14.25;;;7.65;;
22754;SDS011;11544;42.020;23.094;2022-10-17T06:54:10;16.15;;;7.82;;
22754;SDS011;11544;42.020;23.094;2022-10-17T06:57:04;13.23;;;7.40;;
22754;SDS011;11544;42.020;23.094;2022-10-17T06:59:49;13.55;;;7.25;;
22754;SDS011;11544;42.020;23.094;2022-10-17T07:02:19;8.55;;;6.45;;
22754;SDS011;11544;42.020;23.094;2022-10-17T07:04:45;10.20;;;6.00;;
22754;SDS011;11544;42.020;23.094;2022-10-17T07:07:11;10.77;;;6.22;;
22754;SDS011;11544;42.020;23.094;2022-10-17T07:09:38;8.77;;;6.30;;
22754;SDS011;11544;42.020;23.094;2022-10-17T07:12:06;9.02;;;5.57;;
22754;SDS011;11544;42.020;23.094;2022-10-17T07:14:33;8.35;;;5.15;;
22754;SDS011;11544;42.020;23.094;2022-10-17T07:17:00;9.48;;;5.72;;
22754;SDS011;11544;42.020;23.094;2022-10-17T07:19:29;10.40;;;5.80;;
22754;SDS011;11544;42.020;23.094;2022-10-17T07:21:54;8.43;;;5.65;;
22754;SDS011;11544;42.020;23.094;2022-10-17T07:24:20;11.27;;;5.95;;
22754;SDS011;11544;42.020;23.094;2022-10-17T07:27:15;10.38;;;6.10;;
22754;SDS011;11544;42.020;23.094;2022-10-17T07:29:41;12.48;;;5.40;;
22754;SDS011;11544;42.020;23.094;2022-10-17T07:32:10;7.10;;;5.22;;
22754;SDS011;11544;42.020;23.094;2022-10-17T07:34:35;7.50;;;5.30;;
22754;SDS011;11544;42.020;23.094;2022-10-17T07:37:02;13.45;;;5.10;;
22754;SDS011;11544;42.020;23.094;2022-10-17T07:39:28;11.93;;;5.07;;
22754;SDS011;11544;42.020;23.094;2022-10-17T07:41:54;7.25;;;4.80;;
22754;SDS011;11544;42.020;23.094;2022-10-17T07:44:21;7.05;;;4.85;;
22754;SDS011;11544;42.020;23.094;2022-10-17T07:46:49;9.70;;;5.07;;
22754;SDS011;11544;42.020;23.094;2022-10-17T07:49:16;6.90;;;4.75;;
22754;SDS011;11544;42.020;23.094;2022-10-17T07:51:42;8.50;;;5.18;;
22754;SDS011;11544;42.020;23.094;2022-10-17T07:54:07;7.75;;;5.13;;
22754;SDS011;11544;42.020;23.094;2022-10-17T07:56:33;10.15;;;5.10;;
22754;SDS011;11544;42.020;23.094;2022-10-17T07:58:59;8.40;;;5.70;;
22754;SDS011;11544;42.020;23.094;2022-10-17T08:01:24;8.35;;;5.18;;
22754;SDS011;11544;42.020;23.094;2022-10-17T08:03:52;10.40;;;5.50;;
22754;SDS011;11544;42.020;23.094;2022-10-17T08:06:17;9.35;;;5.63;;
22754;SDS011;11544;42.020;23.094;2022-10-17T08:08:43;11.77;;;6.22;;
22754;SDS011;11544;42.020;23.094;2022-10-17T08:11:09;9.55;;;5.47;;
22754;SDS011;11544;42.020;23.094;2022-10-17T08:13:37;9.32;;;5.25;;
22754;SDS011;11544;42.020;23.094;2022-10-17T08:16:05;14.55;;;6.00;;
22754;SDS011;11544;42.020;23.094;2022-10-17T08:18:32;8.52;;;5.22;;
22754;SDS011;11544;42.020;23.094;2022-10-17T08:20:59;9.20;;;5.03;;
22754;SDS011;11544;42.020;23.094;2022-10-17T08:23:26;7.07;;;5.18;;
22754;SDS011;11544;42.020;23.094;2022-10-17T08:25:52;8.20;;;4.97;;
22754;SDS011;11544;42.020;23.094;2022-10-17T08:28:18;6.78;;;5.30;;
22754;SDS011;11544;42.020;23.094;2022-10-17T08:30:44;10.88;;;5.18;;
22754;SDS011;11544;42.020;23.094;2022-10-17T08:33:09;10.45;;;5.20;;
22754;SDS011;11544;42.020;23.094;2022-10-17T08:35:35;10.05;;;5.85;;
22754;SDS011;11544;42.020;23.094;2022-10-17T08:38:01;9.85;;;4.75;;
22754;SDS011;11544;42.020;23.094;2022-10-17T08:40:28;6.40;;;4.30;;
22754;SDS011;11544;42.020;23.094;2022-10-17T08:45:31;7.65;;;4.72;;
22754;SDS011;11544;42.020;23.094;2022-10-17T08:48:01;8.20;;;4.40;;
22754;SDS011;11544;42.020;23.094;2022-10-17T08:53:22;7.07;;;4.72;;
22754;SDS011;11544;42.020;23.094;2022-10-17T08:55:54;11.63;;;4.72;;
22754;SDS011;11544;42.020;23.094;2022-10-17T09:01:09;8.85;;;4.60;;
22754;SDS011;11544;42.020;23.094;2022-10-17T09:06:27;6.28;;;3.85;;
22754;SDS011;11544;42.020;23.094;2022-10-17T09:14:36;8.35;;;4.80;;
22754;SDS011;11544;42.020;23.094;2022-10-17T09:20:00;5.72;;;3.75;;
22754;SDS011;11544;42.020;23.094;2022-10-17T09:22:38;11.57;;;4.18;;
22754;SDS011;11544;42.020;23.094;2022-10-17T09:25:11;7.13;;;4.13;;
22754;SDS011;11544;42.020;23.094;2022-10-17T09:27:41;9.57;;;3.78;;
22754;SDS011;11544;42.020;23.094;2022-10-17T09:30:28;7.57;;;4.05;;
22754;SDS011;11544;42.020;23.094;2022-10-17T09:32:59;10.15;;;4.63;;
22754;SDS011;11544;42.020;23.094;2022-10-17T09:35:26;8.20;;;4.53;;
22754;SDS011;11544;42.020;23.094;2022-10-17T09:37:54;10.65;;;4.47;;
22754;SDS011;11544;42.020;23.094;2022-10-17T09:40:22;8.45;;;4.22;;
22754;SDS011;11544;42.020;23.094;2022-10-17T09:42:52;7.03;;;3.65;;
22754;SDS011;11544;42.020;23.094;2022-10-17T09:45:19;9.15;;;3.90;;
22754;SDS011;11544;42.020;23.094;2022-10-17T09:47:56;5.25;;;3.60;;
22754;SDS011;11544;42.020;23.094;2022-10-17T09:50:31;6.70;;;3.92;;
22754;SDS011;11544;42.020;23.094;2022-10-17T09:53:04;6.82;;;3.90;;
22754;SDS011;11544;42.020;23.094;2022-10-17T09:55:41;6.40;;;3.53;;
22754;SDS011;11544;42.020;23.094;2022-10-17T09:58:09;5.90;;;3.72;;
22754;SDS011;11544;42.020;23.094;2022-10-17T10:00:37;8.30;;;3.90;;
22754;SDS011;11544;42.020;23.094;2022-10-17T10:06:31;5.57;;;4.20;;
22754;SDS011;11544;42.020;23.094;2022-10-17T10:08:50;7.68;;;3.63;;
22754;SDS011;11544;42.020;23.094;2022-10-17T10:11:22;6.22;;;3.88;;
22754;SDS011;11544;42.020;23.094;2022-10-17T10:14:27;7.63;;;3.35;;
22754;SDS011;11544;42.020;23.094;2022-10-17T10:16:53;6.13;;;3.60;;
22754;SDS011;11544;42.020;23.094;2022-10-17T10:19:20;9.73;;;3.70;;
22754;SDS011;11544;42.020;23.094;2022-10-17T10:21:54;5.05;;;3.40;;
22754;SDS011;11544;42.020;23.094;2022-10-17T10:24:21;9.43;;;3.50;;
22754;SDS011;11544;42.020;23.094;2022-10-17T10:26:48;11.85;;;3.08;;
22754;SDS011;11544;42.020;23.094;2022-10-17T10:34:46;4.50;;;3.13;;
22754;SDS011;11544;42.020;23.094;2022-10-17T10:37:20;4.20;;;3.50;;
22754;SDS011;11544;42.020;23.094;2022-10-17T10:39:53;5.60;;;3.60;;
22754;SDS011;11544;42.020;23.094;2022-10-17T10:44:46;6.30;;;3.15;;
22754;SDS011;11544;42.020;23.094;2022-10-17T10:49:52;5.32;;;3.35;;
22754;SDS011;11544;42.020;23.094;2022-10-17T10:52:44;7.47;;;3.78;;
22754;SDS011;11544;42.020;23.094;2022-10-17T10:57:47;6.38;;;3.72;;
22754;SDS011;11544;42.020;23.094;2022-10-17T11:00:15;5.25;;;3.00;;
22754;SDS011;11544;42.020;23.094;2022-10-17T11:03:28;4.32;;;2.50;;
22754;SDS011;11544;42.020;23.094;2022-10-17T11:05:45;5.35;;;2.33;;
22754;SDS011;11544;42.020;23.094;2022-10-17T11:08:22;3.67;;;2.40;;
22754;SDS011;11544;42.020;23.094;2022-10-17T11:16:38;4.78;;;2.15;;
22754;SDS011;11544;42.020;23.094;2022-10-17T11:22:55;3.47;;;2.20;;
22754;SDS011;11544;42.020;23.094;2022-10-17T11:27:58;5.20;;;2.78;;
22754;SDS011;11544;42.020;23.094;2022-10-17T11:30:25;3.20;;;2.20;;
22754;SDS011;11544;42.020;23.094;2022-10-17T11:32:55;4.47;;;2.40;;
22754;SDS011;11544;42.020;23.094;2022-10-17T11:35:26;5.78;;;2.55;;
22754;SDS011;11544;42.020;23.094;2022-10-17T11:40:41;3.40;;;2.08;;
22754;SDS011;11544;42.020;23.094;2022-10-17T11:43:15;3.67;;;1.92;;
22754;SDS011;11544;42.020;23.094;2022-10-17T11:45:43;4.13;;;1.95;;
22754;SDS011;11544;42.020;23.094;2022-10-17T11:48:17;7.55;;;2.50;;
22754;SDS011;11544;42.020;23.094;2022-10-17T11:51:11;2.20;;;2.00;;
22754;SDS011;11544;42.020;23.094;2022-10-17T11:56:10;5.38;;;1.80;;
22754;SDS011;11544;42.020;23.094;2022-10-17T11:58:44;3.15;;;2.05;;
22754;SDS011;11544;42.020;23.094;2022-10-17T12:04:25;3.42;;;2.03;;
22754;SDS011;11544;42.020;23.094;2022-10-17T12:12:40;4.72;;;2.42;;
22754;SDS011;11544;42.020;23.094;2022-10-17T12:17:36;2.80;;;1.90;;
22754;SDS011;11544;42.020;23.094;2022-10-17T12:22:51;4.25;;;1.83;;
22754;SDS011;11544;42.020;23.094;2022-10-17T12:25:30;4.43;;;1.52;;
22754;SDS011;11544;42.020;23.094;2022-10-17T12:28:06;2.53;;;1.65;;
22754;SDS011;11544;42.020;23.094;2022-10-17T12:30:48;2.97;;;2.05;;
22754;SDS011;11544;42.020;23.094;2022-10-17T12:44:33;2.28;;;1.60;;
22754;SDS011;11544;42.020;23.094;2022-10-17T12:46:54;2.75;;;1.75;;
22754;SDS011;11544;42.020;23.094;2022-10-17T12:49:35;4.78;;;1.73;;
22754;SDS011;11544;42.020;23.094;2022-10-17T12:54:43;6.45;;;2.08;;
22754;SDS011;11544;42.020;23.094;2022-10-17T12:57:18;4.35;;;1.65;;
22754;SDS011;11544;42.020;23.094;2022-10-17T12:59:44;3.83;;;1.63;;
22754;SDS011;11544;42.020;23.094;2022-10-17T13:02:14;3.28;;;1.50;;
22754;SDS011;11544;42.020;23.094;2022-10-17T13:04:44;4.55;;;1.73;;
22754;SDS011;11544;42.020;23.094;2022-10-17T13:07:18;3.20;;;2.10;;
22754;SDS011;11544;42.020;23.094;2022-10-17T13:09:46;2.25;;;1.83;;
22754;SDS011;11544;42.020;23.094;2022-10-17T13:12:17;2.05;;;1.65;;
22754;SDS011;11544;42.020;23.094;2022-10-17T13:14:47;4.32;;;2.67;;
22754;SDS011;11544;42.020;23.094;2022-10-17T13:17:28;4.13;;;2.13;;
22754;SDS011;11544;42.020;23.094;2022-10-17T13:19:55;1.85;;;1.65;;
22754;SDS011;11544;42.020;23.094;2022-10-17T13:22:23;5.13;;;1.88;;
22754;SDS011;11544;42.020;23.094;2022-10-17T13:24:51;3.92;;;1.73;;
22754;SDS011;11544;42.020;23.094;2022-10-17T13:27:26;4.75;;;1.88;;
22754;SDS011;11544;42.020;23.094;2022-10-17T13:29:54;2.05;;;1.70;;
22754;SDS011;11544;42.020;23.094;2022-10-17T13:32:21;3.22;;;1.90;;
22754;SDS011;11544;42.020;23.094;2022-10-17T13:35:04;3.45;;;1.90;;
22754;SDS011;11544;42.020;23.094;2022-10-17T13:37:35;6.65;;;1.95;;
22754;SDS011;11544;42.020;23.094;2022-10-17T13:40:03;2.58;;;1.92;;
22754;SDS011;11544;42.020;23.094;2022-10-17T13:42:30;2.40;;;1.58;;
22754;SDS011;11544;42.020;23.094;2022-10-17T13:45:02;2.38;;;1.58;;
22754;SDS011;11544;42.020;23.094;2022-10-17T13:47:29;2.85;;;1.92;;
22754;SDS011;11544;42.020;23.094;2022-10-17T13:50:01;2.60;;;1.58;;
22754;SDS011;11544;42.020;23.094;2022-10-17T13:52:29;2.92;;;1.80;;
22754;SDS011;11544;42.020;23.094;2022-10-17T13:54:59;2.47;;;1.60;;
22754;SDS011;11544;42.020;23.094;2022-10-17T13:57:31;5.10;;;2.20;;
22754;SDS011;11544;42.020;23.094;2022-10-17T13:59:58;2.50;;;1.40;;
22754;SDS011;11544;42.020;23.094;2022-10-17T14:02:27;2.17;;;1.70;;
22754;SDS011;11544;42.020;23.094;2022-10-17T14:05:09;2.65;;;1.45;;
22754;SDS011;11544;42.020;23.094;2022-10-17T14:07:41;2.15;;;1.63;;
22754;SDS011;11544;42.020;23.094;2022-10-17T14:10:23;2.83;;;1.73;;
22754;SDS011;11544;42.020;23.094;2022-10-17T14:12:51;1.88;;;1.30;;
22754;SDS011;11544;42.020;23.094;2022-10-17T14:15:18;3.40;;;1.60;;
22754;SDS011;11544;42.020;23.094;2022-10-17T14:17:52;1.30;;;1.20;;
22754;SDS011;11544;42.020;23.094;2022-10-17T14:20:20;2.08;;;1.15;;
22754;SDS011;11544;42.020;23.094;2022-10-17T14:22:47;1.45;;;1.10;;
22754;SDS011;11544;42.020;23.094;2022-10-17T14:25:29;1.92;;;1.20;;
22754;SDS011;11544;42.020;23.094;2022-10-17T14:30:34;3.50;;;1.40;;
22754;SDS011;11544;42.020;23.094;2022-10-17T14:33:07;3.08;;;1.77;;
22754;SDS011;11544;42.020;23.094;2022-10-17T14:35:39;5.97;;;1.17;;
22754;SDS011;11544;42.020;23.094;2022-10-17T14:38:14;1.33;;;1.00;;
22754;SDS011;11544;42.020;23.094;2022-10-17T14:40:47;2.05;;;1.10;;
22754;SDS011;11544;42.020;23.094;2022-10-17T14:43:19;1.42;;;0.90;;
22754;SDS011;11544;42.020;23.094;2022-10-17T14:45:47;1.35;;;0.90;;
22754;SDS011;11544;42.020;23.094;2022-10-17T14:48:15;1.58;;;1.00;;
22754;SDS011;11544;42.020;23.094;2022-10-17T14:51:02;5.63;;;1.20;;
22754;SDS011;11544;42.020;23.094;2022-10-17T14:53:35;2.58;;;1.00;;
22754;SDS011;11544;42.020;23.094;2022-10-17T14:56:03;1.50;;;1.15;;
22754;SDS011;11544;42.020;23.094;2022-10-17T14:58:44;2.00;;;0.82;;
22754;SDS011;11544;42.020;23.094;2022-10-17T15:01:10;1.20;;;0.90;;
22754;SDS011;11544;42.020;23.094;2022-10-17T15:03:35;3.00;;;1.20;;
22754;SDS011;11544;42.020;23.094;2022-10-17T15:06:08;2.10;;;1.10;;
22754;SDS011;11544;42.020;23.094;2022-10-17T15:08:42;2.03;;;1.13;;
22754;SDS011;11544;42.020;23.094;2022-10-17T15:11:08;3.55;;;2.78;;
22754;SDS011;11544;42.020;23.094;2022-10-17T15:13:35;3.20;;;1.23;;
22754;SDS011;11544;42.020;23.094;2022-10-17T15:16:01;1.80;;;1.15;;
22754;SDS011;11544;42.020;23.094;2022-10-17T15:18:31;2.65;;;1.42;;
22754;SDS011;11544;42.020;23.094;2022-10-17T15:20:56;1.52;;;0.90;;
22754;SDS011;11544;42.020;23.094;2022-10-17T15:23:22;1.85;;;1.30;;
22754;SDS011;11544;42.020;23.094;2022-10-17T15:25:48;1.77;;;1.30;;
22754;SDS011;11544;42.020;23.094;2022-10-17T15:28:13;3.08;;;1.75;;
22754;SDS011;11544;42.020;23.094;2022-10-17T15:30:39;4.28;;;1.98;;
22754;SDS011;11544;42.020;23.094;2022-10-17T15:33:05;2.58;;;1.23;;
22754;SDS011;11544;42.020;23.094;2022-10-17T15:35:30;2.00;;;1.40;;
22754;SDS011;11544;42.020;23.094;2022-10-17T15:37:56;2.35;;;1.20;;
22754;SDS011;11544;42.020;23.094;2022-10-17T15:40:23;1.35;;;1.23;;
22754;SDS011;11544;42.020;23.094;2022-10-17T15:42:54;11.07;;;2.33;;
22754;SDS011;11544;42.020;23.094;2022-10-17T15:45:20;8.20;;;3.83;;
22754;SDS011;11544;42.020;23.094;2022-10-17T15:47:53;4.32;;;2.50;;
22754;SDS011;11544;42.020;23.094;2022-10-17T15:50:21;3.85;;;1.95;;
22754;SDS011;11544;42.020;23.094;2022-10-17T15:52:48;2.63;;;1.50;;
22754;SDS011;11544;42.020;23.094;2022-10-17T15:55:15;3.65;;;1.73;;
22754;SDS011;11544;42.020;23.094;2022-10-17T15:57:48;2.67;;;1.40;;
22754;SDS011;11544;42.020;23.094;2022-10-17T16:00:16;3.42;;;1.50;;
22754;SDS011;11544;42.020;23.094;2022-10-17T16:02:43;2.33;;;1.38;;
22754;SDS011;11544;42.020;23.094;2022-10-17T16:05:12;3.60;;;1.52;;
22754;SDS011;11544;42.020;23.094;2022-10-17T16:07:43;2.30;;;1.50;;
22754;SDS011;11544;42.020;23.094;2022-10-17T16:10:13;2.83;;;1.65;;
22754;SDS011;11544;42.020;23.094;2022-10-17T16:12:39;2.08;;;1.65;;
22754;SDS011;11544;42.020;23.094;2022-10-17T16:15:15;6.20;;;1.90;;
22754;SDS011;11544;42.020;23.094;2022-10-17T16:17:43;5.00;;;1.90;;
22754;SDS011;11544;42.020;23.094;2022-10-17T16:20:10;2.35;;;1.77;;
22754;SDS011;11544;42.020;23.094;2022-10-17T16:22:36;1.35;;;1.15;;
22754;SDS011;11544;42.020;23.094;2022-10-17T16:25:05;5.43;;;2.22;;
22754;SDS011;11544;42.020;23.094;2022-10-17T16:27:52;2.55;;;1.50;;
22754;SDS011;11544;42.020;23.094;2022-10-17T16:30:20;4.25;;;1.90;;
22754;SDS011;11544;42.020;23.094;2022-10-17T16:32:47;3.20;;;1.85;;
22754;SDS011;11544;42.020;23.094;2022-10-17T16:35:15;4.13;;;1.75;;
22754;SDS011;11544;42.020;23.094;2022-10-17T16:37:45;2.92;;;1.73;;
22754;SDS011;11544;42.020;23.094;2022-10-17T16:40:11;5.63;;;2.00;;
22754;SDS011;11544;42.020;23.094;2022-10-17T16:42:37;5.13;;;2.28;;
22754;SDS011;11544;42.020;23.094;2022-10-17T16:45:03;3.67;;;1.92;;
22754;SDS011;11544;42.020;23.094;2022-10-17T16:47:29;4.55;;;2.38;;
22754;SDS011;11544;42.020;23.094;2022-10-17T16:49:55;3.45;;;1.75;;
22754;SDS011;11544;42.020;23.094;2022-10-17T16:52:21;2.65;;;1.77;;
22754;SDS011;11544;42.020;23.094;2022-10-17T16:54:47;3.05;;;1.45;;